Time;durP1;ratioP1;P1;durP2;ratioP2;P2;SDS_P1;SDS_P2;PMS_P1;PMS_P2;Temp;Humidity;BMP_temperature;BMP_pressure;BME280_temperature;BME280_humidity;BME280_pressure;Samples;Min_cycle;Max_cycle;Signal;HPM_P1;HPM_P2
2023/10/06 00:01:56;;;;;;;27.13;16.73;;;;;;;15.89;100.00;95261.38;5093890;28;20073;-81
2023/10/06 00:04:22;;;;;;;27.95;17.50;;;;;;;15.69;100.00;95254.38;5078326;28;20116;-81
2023/10/06 00:06:48;;;;;;;26.02;16.55;;;;;;;15.34;100.00;95269.47;5096414;28;20073;-81
2023/10/06 00:09:28;;;;;;;32.10;17.92;;;;;;;15.27;100.00;95267.91;5094905;28;20024;-81
2023/10/06 00:11:55;;;;;;;31.25;17.73;;;;;;;15.49;100.00;95273.84;5095393;28;20032;-81
2023/10/06 00:14:39;;;;;;;32.97;17.35;;;;;;;15.69;100.00;95257.84;5094948;28;20035;-81
2023/10/06 00:17:18;;;;;;;35.13;17.45;;;;;;;15.76;100.00;95254.88;5094937;28;20028;-81
2023/10/06 00:19:51;;;;;;;27.45;16.75;;;;;;;16.01;100.00;95266.31;5095071;28;20445;-80
2023/10/06 00:24:55;;;;;;;32.42;18.38;;;;;;;15.63;100.00;95256.28;5094668;28;20046;-81
2023/10/06 00:27:29;;;;;;;31.73;19.35;;;;;;;15.41;100.00;95260.16;5078543;28;20441;-80
2023/10/06 00:29:55;;;;;;;27.45;17.55;;;;;;;15.36;100.00;95262.84;5094727;28;20032;-81
2023/10/06 00:32:27;;;;;;;29.67;16.90;;;;;;;15.47;100.00;95260.13;5076983;28;20101;-80
2023/10/06 00:35:11;;;;;;;25.42;16.13;;;;;;;15.61;100.00;95260.28;5094236;28;20028;-81
2023/10/06 00:37:39;;;;;;;26.35;16.00;;;;;;;15.69;100.00;95252.56;5094227;28;20034;-80
2023/10/06 00:40:11;;;;;;;24.45;15.50;;;;;;;15.60;100.00;95258.72;5093930;28;20036;-80
2023/10/06 00:42:37;;;;;;;24.80;15.07;;;;;;;15.64;100.00;95249.16;5077774;28;20028;-80
2023/10/06 00:45:07;;;;;;;22.85;14.77;;;;;;;15.65;100.00;95258.66;5093767;28;20035;-80
2023/10/06 00:47:38;;;;;;;26.77;15.80;;;;;;;15.51;100.00;95255.88;5093775;28;20030;-80
2023/10/06 00:50:08;;;;;;;26.67;16.50;;;;;;;15.44;100.00;95250.91;5077848;28;20032;-81
2023/10/06 00:52:34;;;;;;;27.10;16.13;;;;;;;15.45;100.00;95249.84;5094052;28;20059;-81
2023/10/06 00:55:08;;;;;;;29.42;16.48;;;;;;;15.35;100.00;95248.06;5094085;28;20108;-81
2023/10/06 00:57:34;;;;;;;24.08;16.48;;;;;;;15.23;100.00;95255.56;5078128;28;20036;-81
2023/10/06 01:00:00;;;;;;;30.40;17.60;;;;;;;15.25;100.00;95245.50;5094736;28;20028;-81
2023/10/06 01:02:26;;;;;;;21.98;14.93;;;;;;;15.35;100.00;95245.44;5094206;28;20444;-80
2023/10/06 01:04:55;;;;;;;26.52;16.25;;;;;;;15.18;100.00;95245.00;5093867;28;20488;-80
2023/10/06 01:07:24;;;;;;;25.75;15.00;;;;;;;15.43;100.00;95251.19;5077189;28;20337;-80
2023/10/06 01:09:57;;;;;;;23.77;15.10;;;;;;;15.49;100.00;95252.69;5093646;28;20032;-80
2023/10/06 01:12:25;;;;;;;24.17;14.67;;;;;;;15.32;100.00;95255.75;5076831;28;20572;-80
2023/10/06 01:15:05;;;;;;;26.60;15.45;;;;;;;15.31;100.00;95251.53;5093086;28;20024;-81
2023/10/06 01:17:31;;;;;;;24.67;15.27;;;;;;;15.37;100.00;95245.94;5092840;28;20028;-80
2023/10/06 01:19:59;;;;;;;26.15;15.88;;;;;;;15.59;100.00;95250.00;5076863;28;20042;-80
2023/10/06 01:22:27;;;;;;;23.02;15.10;;;;;;;15.44;100.00;95237.72;5077076;28;20433;-81
2023/10/06 01:24:53;;;;;;;27.42;15.88;;;;;;;15.44;100.00;95240.34;5077450;28;20038;-81
2023/10/06 01:27:19;;;;;;;21.90;15.10;;;;;;;15.37;100.00;95243.31;5076799;28;20427;-80
2023/10/06 01:29:45;;;;;;;22.88;14.70;;;;;;;15.46;100.00;95245.34;5093630;28;20090;-81
2023/10/06 01:32:11;;;;;;;24.17;15.02;;;;;;;15.41;100.00;95246.16;5093810;28;20345;-81
2023/10/06 01:34:39;;;;;;;21.58;14.90;;;;;;;15.26;100.00;95242.56;5093724;28;20028;-81
2023/10/06 01:37:07;;;;;;;24.60;14.50;;;;;;;15.19;100.00;95249.22;5093486;28;20138;-81
2023/10/06 01:39:35;;;;;;;23.60;15.43;;;;;;;15.34;100.00;95248.34;5093867;28;20039;-81
2023/10/06 01:42:04;;;;;;;25.70;15.82;;;;;;;15.25;100.00;95245.50;5093791;28;20024;-81
2023/10/06 01:44:31;;;;;;;28.70;16.13;;;;;;;15.26;100.00;95250.50;5093363;28;20032;-81
2023/10/06 01:46:57;;;;;;;24.73;14.90;;;;;;;15.33;100.00;95249.41;5089179;28;20038;-81
2023/10/06 01:49:23;;;;;;;28.73;16.17;;;;;;;15.15;100.00;95249.00;5073271;28;20051;-81
2023/10/06 01:51:50;;;;;;;29.45;15.48;;;;;;;15.27;100.00;95256.56;5073451;28;20043;-81
2023/10/06 01:54:20;;;;;;;26.73;16.17;;;;;;;15.34;100.00;95249.13;5057346;28;20036;-81
2023/10/06 01:56:46;;;;;;;24.45;14.65;;;;;;;15.36;100.00;95249.66;5073546;28;20024;-81
2023/10/06 01:59:14;;;;;;;25.80;15.15;;;;;;;15.30;100.00;95249.97;5056397;28;20349;-80
2023/10/06 02:01:41;;;;;;;25.33;15.23;;;;;;;15.37;100.00;95238.03;5073668;28;20345;-81
2023/10/06 02:04:17;;;;;;;27.73;15.52;;;;;;;15.50;100.00;95247.16;5073280;28;20024;-81
2023/10/06 02:06:44;;;;;;;29.85;15.82;;;;;;;15.54;100.00;95255.31;5073686;28;20032;-81
2023/10/06 02:09:18;;;;;;;22.05;14.52;;;;;;;15.57;100.00;95248.72;5072902;28;20029;-81
2023/10/06 02:11:43;;;;;;;;;;;;;;;15.54;100.00;95247.41;5058606;28;20434;-81
2023/10/06 02:14:11;;;;;;;25.95;15.98;;;;;;;15.47;100.00;95250.34;5094209;28;19913;-81
2023/10/06 02:16:37;;;;;;;23.00;14.60;;;;;;;15.71;100.00;95248.84;5077088;28;20438;-81
2023/10/06 02:19:08;;;;;;;21.83;14.73;;;;;;;15.82;100.00;95240.53;5076707;28;20030;-81
2023/10/06 02:21:44;;;;;;;27.05;16.00;;;;;;;15.46;100.00;95242.69;5078291;28;20023;-81
2023/10/06 02:24:09;;;;;;;27.45;15.90;;;;;;;15.34;100.00;95248.34;5060442;28;20024;-81
2023/10/06 02:26:38;;;;;;;28.50;16.02;;;;;;;15.69;100.00;95236.69;5076834;28;20170;-81
2023/10/06 02:29:22;;;;;;;24.52;15.77;;;;;;;15.42;100.00;95242.47;5076297;28;20420;-81
2023/10/06 02:31:51;;;;;;;26.08;16.67;;;;;;;15.24;100.00;95242.06;5076974;28;20028;-81
2023/10/06 02:34:29;;;;;;;23.02;15.35;;;;;;;15.20;100.00;95251.59;5076763;28;20091;-81
2023/10/06 02:36:55;;;;;;;26.85;14.98;;;;;;;15.54;100.00;95250.03;5076207;28;20048;-80
2023/10/06 02:39:21;;;;;;;26.30;15.13;;;;;;;15.75;100.00;95245.38;5076475;28;20024;-81
2023/10/06 02:41:47;;;;;;;22.60;13.40;;;;;;;16.12;100.00;95245.84;5076567;28;20039;-81
2023/10/06 02:44:22;;;;;;;23.65;13.73;;;;;;;16.09;100.00;95251.69;5076590;28;20028;-80
2023/10/06 02:46:51;;;;;;;21.70;14.23;;;;;;;16.04;100.00;95249.88;5076745;28;20035;-81
2023/10/06 02:49:24;;;;;;;23.10;13.48;;;;;;;16.23;100.00;95249.16;5059930;28;20122;-81
2023/10/06 02:51:50;;;;;;;23.17;13.20;;;;;;;16.20;100.00;95258.44;5076490;28;20119;-81
2023/10/06 02:56:43;;;;;;;22.52;14.82;;;;;;;15.89;100.00;95255.28;5076423;28;20407;-81
2023/10/06 02:59:43;;;;;;;23.85;14.85;;;;;;;16.14;100.00;95251.63;5075970;28;20028;-81
2023/10/06 03:02:06;;;;;;;28.73;14.57;;;;;;;15.70;100.00;95258.59;5076220;28;20031;-81
2023/10/06 03:04:35;;;;;;;27.30;15.02;;;;;;;15.67;100.00;95256.53;5076290;28;20029;-81
2023/10/06 03:07:02;;;;;;;22.65;13.70;;;;;;;15.87;100.00;95254.78;5059740;28;20441;-81
2023/10/06 03:09:36;;;;;;;24.02;13.55;;;;;;;16.18;100.00;95252.63;5075971;28;20031;-80
2023/10/06 03:14:47;;;;;;;22.17;14.18;;;;;;;15.97;100.00;95246.78;5076200;28;20108;-81
2023/10/06 03:17:13;;;;;;;27.60;14.40;;;;;;;15.86;100.00;95247.94;5075638;28;20726;-81
2023/10/06 03:19:43;;;;;;;24.35;14.35;;;;;;;15.96;100.00;95247.84;5075966;28;20107;-81
2023/10/06 03:22:10;;;;;;;22.80;14.10;;;;;;;16.36;100.00;95242.41;5059867;28;20024;-81
2023/10/06 03:24:59;;;;;;;24.75;14.65;;;;;;;16.55;100.00;95247.72;5075568;28;20050;-81
2023/10/06 03:27:25;;;;;;;24.70;14.75;;;;;;;16.65;100.00;95241.53;5075464;28;20028;-81
2023/10/06 03:29:55;;;;;;;23.15;13.98;;;;;;;16.75;100.00;95248.56;5075659;28;20349;-81
2023/10/06 03:32:33;;;;;;;20.98;13.60;;;;;;;16.87;100.00;95248.94;5075571;28;20044;-80
2023/10/06 03:35:11;;;;;;;21.77;14.25;;;;;;;16.92;100.00;95248.84;5075636;28;20040;-81
2023/10/06 03:37:51;;;;;;;23.10;13.07;;;;;;;16.93;100.00;95241.72;5060188;28;20028;-81
2023/10/06 03:43:05;;;;;;;24.15;14.98;;;;;;;16.24;100.00;95245.44;5064891;28;20439;-81
2023/10/06 03:45:32;;;;;;;22.13;13.85;;;;;;;16.09;100.00;95249.81;5075670;28;20036;-81
2023/10/06 03:48:24;;;;;;;23.02;13.93;;;;;;;16.17;100.00;95248.41;5076118;28;20031;-81
2023/10/06 03:50:44;;;;;;;20.77;13.02;;;;;;;16.54;100.00;95239.00;5075210;28;20032;-81
2023/10/06 03:53:12;;;;;;;21.63;14.52;;;;;;;16.68;100.00;95241.75;5075012;28;20510;-81
2023/10/06 03:55:44;;;;;;;26.17;14.95;;;;;;;16.30;100.00;95232.94;5074920;28;20033;-81
2023/10/06 03:58:11;;;;;;;28.33;15.23;;;;;;;16.56;100.00;95233.44;5074713;28;20032;-81
2023/10/06 04:00:40;;;;;;;23.25;15.18;;;;;;;16.21;100.00;95240.72;5074954;28;20036;-80
2023/10/06 04:03:13;;;;;;;22.13;14.85;;;;;;;16.44;100.00;95233.84;5058467;28;20074;-80
2023/10/06 04:05:38;;;;;;;23.67;15.05;;;;;;;16.50;100.00;95240.66;5059022;28;20044;-81
2023/10/06 04:08:08;;;;;;;25.80;15.02;;;;;;;16.33;100.00;95238.47;5077706;28;20035;-81
2023/10/06 04:10:36;;;;;;;27.90;17.70;;;;;;;15.88;100.00;95243.91;5096255;28;20492;-81
2023/10/06 04:13:08;;;;;;;29.83;16.45;;;;;;;15.78;100.00;95244.81;5096297;28;20081;-81
2023/10/06 04:15:38;;;;;;;24.75;15.13;;;;;;;15.77;100.00;95248.53;5095995;28;20444;-81
2023/10/06 04:18:10;;;;;;;33.42;18.35;;;;;;;15.40;100.00;95247.22;5094313;28;20038;-81
2023/10/06 04:20:42;;;;;;;26.15;15.23;;;;;;;15.62;100.00;95243.38;5089605;28;20028;-81
2023/10/06 04:23:11;;;;;;;27.42;15.85;;;;;;;15.76;100.00;95241.66;5089746;28;20031;-80
2023/10/06 04:25:37;;;;;;;25.08;15.85;;;;;;;15.68;100.00;95244.88;5077969;28;20031;-81
2023/10/06 04:28:14;;;;;;;23.98;14.82;;;;;;;15.61;100.00;95239.94;5093233;28;20334;-80
2023/10/06 04:30:43;;;;;;;27.13;16.20;;;;;;;15.36;100.00;95249.66;5077487;28;20476;-80
2023/10/06 04:33:10;;;;;;;26.92;15.95;;;;;;;15.46;100.00;95246.16;5094310;28;20036;-81
2023/10/06 04:35:47;;;;;;;25.40;15.77;;;;;;;15.39;100.00;95246.47;5076628;28;20123;-81
2023/10/06 04:38:13;;;;;;;22.58;15.52;;;;;;;15.37;100.00;95245.94;5093904;28;20035;-81
2023/10/06 04:40:41;;;;;;;25.40;16.33;;;;;;;15.36;100.00;95252.28;5094618;28;20024;-81
2023/10/06 04:43:07;;;;;;;30.23;15.98;;;;;;;15.41;100.00;95251.44;5077366;28;20449;-81
2023/10/06 04:45:32;;;;;;;23.33;15.05;;;;;;;15.31;100.00;95252.31;5094423;28;20032;-83
2023/10/06 04:48:01;;;;;;;27.35;16.55;;;;;;;15.52;100.00;95250.31;5095216;28;20082;-83
2023/10/06 04:50:30;;;;;;;28.90;16.38;;;;;;;15.45;100.00;95243.75;5077439;28;20441;-83
2023/10/06 04:52:58;;;;;;;32.63;18.15;;;;;;;15.29;100.00;95249.16;5094085;28;20043;-83
2023/10/06 04:55:24;;;;;;;25.08;16.00;;;;;;;15.34;100.00;95249.13;5077594;28;20043;-83
2023/10/06 04:57:49;;;;;;;23.55;15.50;;;;;;;15.36;100.00;95244.38;5077518;28;20031;-83
2023/10/06 05:00:19;;;;;;;29.10;18.00;;;;;;;15.24;100.00;95254.50;5094568;28;20035;-83
2023/10/06 05:02:50;;;;;;;29.90;18.30;;;;;;;15.04;100.00;95250.91;5077505;28;20032;-82
2023/10/06 05:05:20;;;;;;;27.67;16.70;;;;;;;15.01;100.00;95246.19;5075910;28;20060;-82
2023/10/06 05:07:53;;;;;;;27.45;15.57;;;;;;;15.04;100.00;95245.63;5057313;28;20476;-82
2023/10/06 05:10:21;;;;;;;28.15;16.25;;;;;;;15.05;100.00;95249.06;5074020;28;20873;-82
2023/10/06 05:12:47;;;;;;;31.02;17.50;;;;;;;14.93;100.00;95246.78;5057684;28;20032;-82
2023/10/06 05:15:23;;;;;;;28.25;16.70;;;;;;;14.69;100.00;95252.66;5073901;28;20032;-82
2023/10/06 05:17:55;;;;;;;32.33;17.08;;;;;;;14.75;100.00;95256.09;5058400;28;20057;-82
2023/10/06 05:20:29;;;;;;;30.77;17.30;;;;;;;14.87;100.00;95266.31;5060021;28;20135;-84
2023/10/06 05:22:54;;;;;;;;;;;;;;;14.75;100.00;95258.72;5075323;28;20029;-83
2023/10/06 05:25:20;;;;;;;27.50;16.10;;;;;;;15.09;100.00;95264.09;5074020;28;19909;-83
2023/10/06 05:27:50;;;;;;;34.97;17.42;;;;;;;14.65;100.00;95262.94;5090865;28;20430;-83
2023/10/06 05:30:17;;;;;;;32.65;17.75;;;;;;;14.67;100.00;95270.59;5080079;28;20035;-84
2023/10/06 05:32:43;;;;;;;38.45;18.50;;;;;;;14.68;100.00;95270.31;5094317;28;20036;-84
2023/10/06 05:35:14;;;;;;;29.77;18.27;;;;;;;14.98;100.00;95275.75;5077448;28;20039;-84
2023/10/06 05:37:42;;;;;;;35.55;20.33;;;;;;;14.75;100.00;95280.59;5077499;28;20057;-84
2023/10/06 05:40:12;;;;;;;29.75;19.23;;;;;;;14.86;100.00;95280.56;5077544;28;20119;-84
2023/10/06 05:42:40;;;;;;;32.53;17.35;;;;;;;15.00;100.00;95283.41;5094214;28;20425;-83
2023/10/06 05:45:15;;;;;;;29.88;17.50;;;;;;;15.11;100.00;95280.44;5093736;28;20068;-83
2023/10/06 05:47:45;;;;;;;24.88;15.70;;;;;;;15.18;100.00;95285.41;5097257;28;20111;-82
2023/10/06 05:50:11;;;;;;;23.80;15.20;;;;;;;15.29;100.00;95295.91;5097995;28;20039;-82
2023/10/06 05:52:38;;;;;;;27.15;15.80;;;;;;;14.90;100.00;95294.78;5081295;28;20468;-83
2023/10/06 05:55:09;;;;;;;26.63;16.98;;;;;;;14.98;100.00;95297.63;5097935;28;20032;-83
2023/10/06 05:57:38;;;;;;;27.35;16.65;;;;;;;14.75;100.00;95306.97;5097742;28;20031;-83
2023/10/06 06:00:09;;;;;;;30.38;16.80;;;;;;;14.88;100.00;95308.25;5081353;28;20039;-83
2023/10/06 06:02:37;;;;;;;27.33;16.55;;;;;;;15.06;100.00;95304.22;5080315;28;20040;-83
2023/10/06 06:05:04;;;;;;;25.67;16.30;;;;;;;15.30;100.00;95310.69;5097583;28;20107;-83
2023/10/06 06:07:30;;;;;;;29.10;15.80;;;;;;;15.39;100.00;95319.59;5080323;28;20397;-82
2023/10/06 06:09:55;;;;;;;23.92;14.73;;;;;;;15.47;100.00;95315.56;5097223;28;20115;-78
2023/10/06 06:12:21;;;;;;;27.20;16.55;;;;;;;15.51;100.00;95314.75;5097325;28;20036;-78
2023/10/06 06:14:47;;;;;;;24.27;15.63;;;;;;;15.68;100.00;95319.66;5094886;28;20031;-78
2023/10/06 06:17:12;;;;;;;22.80;15.25;;;;;;;15.79;100.00;95325.66;5088171;28;20032;-78
2023/10/06 06:19:39;;;;;;;24.17;14.77;;;;;;;15.89;100.00;95322.16;5090902;28;20032;-78
2023/10/06 06:22:05;;;;;;;26.10;15.90;;;;;;;16.14;100.00;95332.78;5096874;28;20081;-78
2023/10/06 06:24:31;;;;;;;25.48;14.80;;;;;;;15.68;100.00;95335.50;5094979;28;20034;-79
2023/10/06 06:26:59;;;;;;;26.17;15.88;;;;;;;15.63;100.00;95348.72;5078010;28;20081;-79
2023/10/06 06:29:25;;;;;;;24.73;15.27;;;;;;;15.56;100.00;95350.91;5089385;28;20032;-79
2023/10/06 06:31:52;;;;;;;27.50;15.35;;;;;;;15.58;100.00;95351.41;5079165;28;20032;-79
2023/10/06 06:34:18;;;;;;;25.92;16.00;;;;;;;15.70;100.00;95348.44;5097826;28;20774;-78
2023/10/06 06:36:45;;;;;;;27.52;16.50;;;;;;;15.87;100.00;95357.84;5080416;28;20115;-79
2023/10/06 06:39:10;;;;;;;25.02;15.60;;;;;;;16.29;100.00;95355.66;5095924;28;20032;-78
2023/10/06 06:41:36;;;;;;;23.30;14.48;;;;;;;16.54;100.00;95360.69;5092617;28;20119;-79
2023/10/06 06:44:01;;;;;;;21.27;14.15;;;;;;;16.74;100.00;95358.88;5091011;28;20031;-78
2023/10/06 06:46:29;;;;;;;23.52;14.30;;;;;;;16.93;100.00;95361.59;5094750;28;20067;-78
2023/10/06 06:48:55;;;;;;;25.13;14.40;;;;;;;17.09;100.00;95364.06;5095807;28;20489;-78
2023/10/06 06:51:25;;;;;;;22.70;13.93;;;;;;;17.21;100.00;95361.00;5079138;28;20452;-79
2023/10/06 06:53:51;;;;;;;22.45;13.80;;;;;;;17.23;100.00;95364.94;5097613;28;20076;-78
2023/10/06 06:56:17;;;;;;;21.00;13.85;;;;;;;17.32;100.00;95367.75;5093271;28;20031;-78
2023/10/06 06:58:43;;;;;;;18.48;12.63;;;;;;;17.37;100.00;95367.69;5087899;28;20032;-79
2023/10/06 07:01:16;;;;;;;25.80;15.23;;;;;;;17.46;100.00;95367.03;5096203;28;20032;-79
2023/10/06 07:03:41;;;;;;;20.02;13.73;;;;;;;17.63;100.00;95372.63;5095268;28;20080;-78
2023/10/06 07:06:16;;;;;;;21.40;13.73;;;;;;;17.58;100.00;95370.06;5084088;28;20028;-79
2023/10/06 07:08:42;;;;;;;25.20;14.95;;;;;;;17.71;100.00;95376.47;5072161;28;20031;-78
2023/10/06 07:11:10;;;;;;;24.33;13.98;;;;;;;17.77;100.00;95375.34;5086520;28;20028;-79
2023/10/06 07:13:36;;;;;;;26.23;15.30;;;;;;;17.64;100.00;95379.50;5096097;28;20131;-79
2023/10/06 07:16:05;;;;;;;23.63;14.15;;;;;;;17.84;100.00;95387.44;5096247;28;20084;-79
2023/10/06 07:18:31;;;;;;;19.27;12.85;;;;;;;17.89;100.00;95387.38;5095530;28;20028;-79
2023/10/06 07:20:56;;;;;;;22.88;13.73;;;;;;;18.04;100.00;95392.47;5086583;28;20491;-79
2023/10/06 07:23:22;;;;;;;22.30;12.85;;;;;;;18.16;100.00;95399.97;5095897;28;20084;-79
2023/10/06 07:25:47;;;;;;;25.67;13.10;;;;;;;18.24;100.00;95395.84;5095766;28;20425;-78
2023/10/06 07:28:13;;;;;;;23.45;13.52;;;;;;;18.49;100.00;95405.25;5095056;28;20024;-79
2023/10/06 07:30:39;;;;;;;24.80;14.93;;;;;;;18.45;100.00;95406.16;5081200;28;20036;-79
2023/10/06 07:33:05;;;;;;;22.08;13.32;;;;;;;18.39;100.00;95405.44;5074997;28;20037;-79
2023/10/06 07:35:31;;;;;;;22.70;13.88;;;;;;;18.19;100.00;95407.34;5075348;28;20425;-79
2023/10/06 07:37:57;;;;;;;25.75;14.95;;;;;;;18.32;100.00;95412.97;5075389;28;20032;-79
2023/10/06 07:40:23;;;;;;;24.08;15.32;;;;;;;18.44;100.00;95418.59;5075362;28;20689;-79
2023/10/06 07:42:50;;;;;;;27.65;15.75;;;;;;;18.55;100.00;95408.59;5074663;28;20083;-79
2023/10/06 07:45:17;;;;;;;30.63;15.52;;;;;;;18.47;100.00;95419.91;5074392;28;20149;-79
2023/10/06 07:47:43;;;;;;;23.67;14.20;;;;;;;18.87;100.00;95419.47;5091496;28;20025;-79
2023/10/06 07:50:12;;;;;;;20.75;13.48;;;;;;;19.10;100.00;95424.91;5057960;28;20165;-79
2023/10/06 07:52:38;;;;;;;19.13;12.32;;;;;;;19.30;100.00;95423.72;5091411;28;20252;-79
2023/10/06 07:55:05;;;;;;;27.45;14.27;;;;;;;18.79;100.00;95419.06;5075607;28;20036;-79
2023/10/06 07:57:32;;;;;;;23.65;12.57;;;;;;;18.62;100.00;95426.78;5091232;28;20406;-79
2023/10/06 08:00:06;;;;;;;21.55;13.77;;;;;;;18.42;100.00;95431.38;5074580;28;20024;-79
2023/10/06 08:02:33;;;;;;;23.02;13.77;;;;;;;19.24;100.00;95430.22;5078635;28;20438;-79
2023/10/06 08:04:59;;;;;;;21.92;14.07;;;;;;;19.63;100.00;95434.19;5082936;28;20089;-79
2023/10/06 08:07:27;;;;;;;22.83;13.52;;;;;;;19.94;100.00;95424.75;5074566;28;20029;-79
2023/10/06 08:09:58;;;;;;;19.35;12.88;;;;;;;20.42;100.00;95434.03;5074079;28;20123;-79
2023/10/06 08:12:23;;;;;;;19.88;11.98;;;;;;;20.48;100.00;95430.94;5074578;28;20032;-81
2023/10/06 08:14:49;;;;;;;17.45;12.80;;;;;;;20.69;100.00;95443.75;5073653;28;20345;-79
2023/10/06 08:17:14;;;;;;;26.27;15.02;;;;;;;20.15;100.00;95436.53;5073728;28;20442;-79
2023/10/06 08:19:40;;;;;;;19.42;13.02;;;;;;;20.81;100.00;95434.44;5077846;28;20035;-79
2023/10/06 08:22:06;;;;;;;22.67;13.73;;;;;;;20.63;100.00;95435.09;5085099;28;20438;-79
2023/10/06 08:24:31;;;;;;;18.70;12.35;;;;;;;20.85;100.00;95436.16;5094195;28;20023;-79
2023/10/06 08:26:57;;;;;;;22.02;12.77;;;;;;;20.81;100.00;95439.75;5094075;28;20425;-79
2023/10/06 08:29:23;;;;;;;26.98;14.20;;;;;;;20.36;100.00;95435.25;5094185;28;20036;-79
2023/10/06 08:31:48;;;;;;;24.92;13.98;;;;;;;19.97;100.00;95440.16;5094284;28;20032;-80
2023/10/06 08:34:14;;;;;;;26.92;14.73;;;;;;;20.06;100.00;95443.63;5093925;28;20337;-79
2023/10/06 08:36:41;;;;;;;20.80;13.00;;;;;;;20.25;100.00;95453.34;5094143;28;20507;-79
2023/10/06 08:39:08;;;;;;;22.45;12.85;;;;;;;20.47;100.00;95448.00;5094147;28;20031;-79
2023/10/06 08:41:36;;;;;;;22.38;13.00;;;;;;;20.44;100.00;95453.94;5077440;28;20151;-79
2023/10/06 08:44:02;;;;;;;18.55;11.95;;;;;;;20.72;100.00;95450.31;5094064;28;20444;-79
2023/10/06 08:46:30;;;;;;;21.55;12.85;;;;;;;20.66;100.00;95463.00;5093534;28;20427;-79
2023/10/06 08:48:56;;;;;;;17.73;10.77;;;;;;;20.61;100.00;95455.13;5093985;28;20036;-79
2023/10/06 08:51:25;;;;;;;20.58;10.77;;;;;;;20.79;100.00;95455.19;5090497;28;20028;-79
2023/10/06 08:53:51;;;;;;;27.38;11.88;;;;;;;20.94;100.00;95454.84;5092004;28;20038;-79
2023/10/06 08:56:17;;;;;;;23.58;11.50;;;;;;;20.90;100.00;95460.00;5074844;28;20099;-80
2023/10/06 08:58:44;;;;;;;18.08;10.32;;;;;;;20.73;100.00;95460.66;5072821;28;20115;-79
2023/10/06 09:01:12;;;;;;;19.85;9.90;;;;;;;21.17;100.00;95458.25;5073569;28;20086;-79
2023/10/06 09:03:38;;;;;;;17.00;10.55;;;;;;;21.14;100.00;95460.72;5073481;28;20035;-79
2023/10/06 09:06:05;;;;;;;30.17;11.90;;;;;;;21.04;100.00;95451.91;5073869;28;20426;-79
2023/10/06 09:08:43;;;;;;;20.67;10.75;;;;;;;20.99;100.00;95457.38;5073869;28;20024;-80
2023/10/06 09:11:11;;;;;;;20.90;10.52;;;;;;;21.89;100.00;95459.97;5073093;28;20032;-80
2023/10/06 09:13:37;;;;;;;23.17;11.05;;;;;;;21.84;100.00;95454.78;5072941;28;20036;-80
2023/10/06 09:16:06;;;;;;;21.73;10.35;;;;;;;22.37;100.00;95450.22;5056279;28;20042;-80
2023/10/06 09:18:34;;;;;;;22.13;11.30;;;;;;;21.84;100.00;95460.13;5073314;28;20024;-80
2023/10/06 09:21:15;;;;;;;27.98;12.20;;;;;;;21.79;100.00;95455.72;5057414;28;20028;-81
2023/10/06 09:23:41;;;;;;;19.42;11.90;;;;;;;22.01;100.00;95452.13;5075407;28;20524;-80
2023/10/06 09:26:08;;;;;;;23.30;12.32;;;;;;;21.99;100.00;95454.31;5093806;28;20153;-80
2023/10/06 09:28:36;;;;;;;21.25;12.73;;;;;;;21.81;100.00;95453.53;5093143;28;20144;-81
2023/10/06 09:31:05;;;;;;;23.23;13.10;;;;;;;21.82;100.00;95447.13;5093008;28;20085;-80
2023/10/06 09:33:38;;;;;;;25.33;14.85;;;;;;;21.39;100.00;95443.25;5093994;28;20064;-80
2023/10/06 09:36:09;;;;;;;27.05;13.95;;;;;;;21.87;100.00;95444.28;5094735;28;20036;-80
2023/10/06 09:38:39;;;;;;;31.95;15.77;;;;;;;21.88;100.00;95440.50;5093101;28;20175;-80
2023/10/06 09:41:07;;;;;;;24.10;13.95;;;;;;;22.02;100.00;95440.38;5094286;28;20032;-80
2023/10/06 09:43:34;;;;;;;25.20;14.52;;;;;;;21.84;100.00;95444.13;5092876;28;20038;-80
2023/10/06 09:46:08;;;;;;;17.77;11.32;;;;;;;21.99;100.00;95440.22;5082125;28;20036;-79
2023/10/06 09:48:40;;;;;;;22.42;11.77;;;;;;;22.27;100.00;95443.31;5077326;28;20032;-79
2023/10/06 09:51:07;;;;;;;23.77;13.60;;;;;;;22.40;100.00;95438.91;5072558;28;20025;-79
2023/10/06 09:53:43;;;;;;;22.60;12.70;;;;;;;22.52;100.00;95440.16;5077828;28;20032;-80
2023/10/06 09:56:12;;;;;;;23.23;11.00;;;;;;;22.63;100.00;95444.06;5092867;28;20032;-79
2023/10/06 09:58:45;;;;;;;19.08;12.60;;;;;;;22.68;100.00;95432.44;5075138;28;20554;-81
2023/10/06 10:01:13;;;;;;;22.77;12.47;;;;;;;22.83;100.00;95445.25;5072639;28;20384;-80
2023/10/06 10:03:39;;;;;;;27.10;12.98;;;;;;;22.92;100.00;95439.88;5072519;28;20071;-80
2023/10/06 10:06:07;;;;;;;25.95;11.15;;;;;;;22.90;100.00;95441.34;5072577;28;20028;-80
2023/10/06 10:08:41;;;;;;;20.92;11.68;;;;;;;22.13;100.00;95437.38;5061603;28;20039;-80
2023/10/06 10:11:13;;;;;;;18.63;10.77;;;;;;;21.73;100.00;95449.78;5087810;28;20054;-80
2023/10/06 10:14:10;;;;;;;20.70;11.93;;;;;;;21.19;100.00;95439.25;5090332;28;20040;-80
2023/10/06 10:16:46;;;;;;;28.17;12.32;;;;;;;21.31;100.00;95441.34;5084460;28;20040;-80
2023/10/06 10:19:18;;;;;;;21.27;11.95;;;;;;;21.94;100.00;95443.81;5088759;28;20043;-80
2023/10/06 10:21:46;;;;;;;20.63;12.32;;;;;;;21.80;100.00;95441.28;5076301;28;20127;-80
2023/10/06 10:24:13;;;;;;;21.20;12.70;;;;;;;21.43;100.00;95430.84;5092609;28;20096;-80
2023/10/06 10:26:39;;;;;;;24.20;13.40;;;;;;;21.22;100.00;95429.88;5076215;28;20122;-80
2023/10/06 10:29:17;;;;;;;27.73;14.95;;;;;;;20.84;100.00;95436.47;5083948;28;20039;-81
2023/10/06 10:31:51;;;;;;;28.25;14.90;;;;;;;20.90;100.00;95425.38;5091966;28;20055;-80
2023/10/06 10:34:25;;;;;;;32.60;15.75;;;;;;;20.61;100.00;95428.50;5074376;28;20123;-80
2023/10/06 10:36:53;;;;;;;30.38;16.80;;;;;;;20.76;100.00;95430.00;5085367;28;20031;-80
2023/10/06 10:39:19;;;;;;;28.88;17.08;;;;;;;20.81;100.00;95429.88;5091569;28;20114;-80
2023/10/06 10:41:45;;;;;;;32.83;15.85;;;;;;;20.61;100.00;95423.16;5075509;28;20024;-80
2023/10/06 10:44:12;;;;;;;27.20;15.23;;;;;;;20.89;100.00;95425.69;5059443;28;20039;-80
2023/10/06 10:46:41;;;;;;;25.20;14.88;;;;;;;21.21;100.00;95421.06;5088638;28;20061;-80
2023/10/06 10:49:13;;;;;;;22.55;13.88;;;;;;;22.51;100.00;95414.56;5083456;28;20519;-79
2023/10/06 10:51:53;;;;;;;30.50;14.82;;;;;;;23.17;100.00;95413.38;5096474;28;20744;-80
2023/10/06 10:54:22;;;;;;;27.60;15.10;;;;;;;23.43;100.00;95409.81;5097337;28;20054;-79
2023/10/06 10:56:53;;;;;;;32.33;15.95;;;;;;;23.53;100.00;95406.75;5064021;28;20024;-80
2023/10/06 10:59:20;;;;;;;26.98;16.15;;;;;;;23.81;100.00;95400.09;5096060;28;20032;-80
2023/10/06 11:01:51;;;;;;;25.40;15.68;;;;;;;23.75;100.00;95398.75;5079292;28;20038;-80
2023/10/06 11:04:35;;;;;;;29.48;16.48;;;;;;;23.43;100.00;95399.13;5079283;28;20036;-80
2023/10/06 11:07:11;;;;;;;22.88;14.15;;;;;;;23.28;100.00;95387.88;5095592;28;20852;-79
2023/10/06 11:09:46;;;;;;;24.20;13.30;;;;;;;23.44;100.00;95393.41;5079620;28;20441;-79
2023/10/06 11:12:24;;;;;;;25.00;14.57;;;;;;;22.29;100.00;95385.06;5096183;28;20032;-80
2023/10/06 11:14:51;;;;;;;25.95;15.73;;;;;;;22.01;100.00;95380.06;5095709;28;20444;-80
2023/10/06 11:17:24;;;;;;;28.58;15.90;;;;;;;21.50;100.00;95386.97;5095229;28;20030;-80
2023/10/06 11:20:00;;;;;;;;;;;;;;;21.65;100.00;95380.38;5098013;28;20055;-80
2023/10/06 11:22:28;;;;;;;30.35;17.38;;;;;;;21.93;100.00;95374.75;5095531;28;19908;-79
2023/10/06 11:24:57;;;;;;;22.75;14.75;;;;;;;22.52;100.00;95376.06;5097219;28;20328;-79
2023/10/06 11:27:23;;;;;;;27.83;15.77;;;;;;;22.24;100.00;95371.88;5095007;28;20042;-80
2023/10/06 11:29:52;;;;;;;29.88;16.17;;;;;;;22.63;100.00;95369.28;5078713;28;20043;-80